Latest Coastal Weather Observations for Stenhouse Bay

IDS60701

Issued at 8:01 pm CST Sunday 28 August 2016 (issued every 10 minutes, with the page automatically refreshed every 10 minutes)

About coastal observations | Map of coastal stations | Coastal observations for SA | Marine services | Other Formats
Station Details ID: 022049 Name: STENHOUSE BAY Lat: -35.28 Lon: 136.94 Height: 42.0 m
Data from the previous 72 hours. | See also: Recent months at Stenhouse Bay
Date/Time
CST
Temp
°C
Wind Pressure Rain since
9am
mm
Weather Cloud Vis
km
Sea
Height
m
Swell
Dir  Spd
kts
Gust
kts
hPa Trend Height
m
Period
s
Dir
28/08:00pm 17.5 NNE 17 24 1011.4 - 0.0 - - - - - - -
28/07:30pm 17.9 NNE 20 27 1011.3 - 0.0 - - - - - - -
28/07:00pm 17.9 NNE 20 27 1011.2 - 0.0 - - - - - - -
28/06:30pm 18.2 NNE 20 30 1010.4 - 0.0 - - - - - - -
28/06:00pm 18.0 NNE 18 27 1010.7 - 0.0 - - - - - - -
28/05:55pm 18.0 NNE 17 27 1010.6 - 0.0 - - - - - - -
28/05:30pm 18.2 NNE 19 25 1010.4 - 0.0 - - - - - - -
28/05:00pm 18.2 NNE 21 29 1009.8 - 0.0 - - - - - - -
28/04:30pm 18.4 NNE 20 30 1009.5 - 0.0 - - - - - - -
28/04:04pm 18.8 NNE 19 29 1009.7 - 0.0 - - - - - - -
28/04:00pm 19.0 NNE 19 28 1009.8 - 0.0 - - - - - - -
28/03:34pm 19.2 NNE 21 31 1009.8 - 0.0 - - - - - - -
28/03:30pm 19.9 NNE 21 28 1009.9 - 0.0 - - - - - - -
28/03:13pm 20.0 NNE 21 31 1009.8 - 0.0 - - - - - - -
28/03:00pm 19.7 NNE 22 30 1010.0 - 0.0 - - - - - - -
28/02:30pm 19.9 N 22 29 1010.5 - 0.0 - - - - - - -
28/02:00pm 19.6 N 23 29 1010.5 - 0.0 - - - - - - -
28/01:40pm 19.6 N 21 31 1011.1 - 0.0 - - - - - - -
28/01:30pm 19.3 NNE 23 30 1011.3 - 0.0 - - - - - - -
28/01:00pm 19.4 N 20 26 1011.9 - 0.0 - - - - - - -
28/12:30pm 19.3 N 19 26 1012.3 - 0.0 - - - - - - -
28/12:00pm 19.1 N 21 28 1012.6 - 0.0 - - - - - - -
28/11:30am 18.3 N 21 29 1013.0 - 0.0 - - - - - - -
28/11:00am 18.5 N 20 27 1013.4 - 0.0 - - - - - - -
28/10:30am 18.1 N 21 29 1013.7 - 0.0 - - - - - - -
28/10:00am 17.2 N 19 24 1013.9 - 0.0 - - - - - - -
28/09:30am 16.8 N 18 23 1014.1 - 0.0 - - - - - - -
28/09:00am 15.3 N 17 25 1014.3 - 0.0 - - - - - - -
28/08:30am 14.5 N 15 19 1014.6 - 0.0 - - - - - - -
28/08:00am 12.6 N 13 17 1014.6 - 0.0 - - - - - - -
28/07:30am 11.7 N 11 16 1014.5 - 0.0 - - - - - - -
28/07:00am 10.3 N 10 13 1014.5 - 0.0 - - - - - - -
28/06:30am 9.7 N 10 13 1014.3 - 0.0 - - - - - - -
28/06:00am 9.8 N 10 11 1014.4 - 0.0 - - - - - - -
28/05:30am 9.3 N 9 11 1014.4 - 0.0 - - - - - - -
28/05:00am 9.2 N 9 10 1014.4 - 0.0 - - - - - - -
28/04:30am 9.2 N 9 10 1014.4 - 0.0 - - - - - - -
28/04:00am 9.3 N 8 10 1014.4 - 0.0 - - - - - - -
28/03:30am 9.4 N 7 8 1014.8 - 0.0 - - - - - - -
28/03:00am 9.9 N 7 9 1015.0 - 0.0 - - - - - - -
28/02:30am 10.2 N 8 10 1015.3 - 0.0 - - - - - - -
28/02:00am 10.2 N 8 10 1015.4 - 0.0 - - - - - - -
28/01:30am 10.3 N 7 10 1016.0 - 0.0 - - - - - - -
28/01:00am 10.3 N 7 9 1016.1 - 0.0 - - - - - - -
28/12:30am 10.7 N 7 8 1016.4 - 0.0 - - - - - - -
28/12:00am 11.2 N 7 10 1016.7 - 0.0 - - - - - - -
 
Date/Time
CST
Temp
°C
Wind Pressure Rain since
9am
mm
Weather Cloud Vis
km
Sea
Height
m
Swell
Dir  Spd
kts
Gust
kts
hPa Trend Height
m
Period
s
Dir
27/11:30pm 11.2 N 6 8 1016.8 - 0.0 - - - - - - -
27/11:00pm 11.6 N 7 9 1016.6 - 0.0 - - - - - - -
27/10:30pm 11.8 N 7 10 1016.8 - 0.0 - - - - - - -
27/10:00pm 12.1 N 8 10 1016.8 - 0.0 - - - - - - -
27/09:30pm 12.0 N 8 10 1016.9 - 0.0 - - - - - - -
27/09:00pm 12.3 N 8 11 1017.0 - 0.0 - - - - - - -
27/08:30pm 12.2 N 8 12 1017.0 - 0.0 - - - - - - -
27/08:00pm 12.2 N 8 11 1017.0 - 0.0 - - - - - - -
27/07:30pm 12.6 N 8 12 1017.0 - 0.0 - - - - - - -
27/07:00pm 12.8 N 8 10 1016.7 - 0.0 - - - - - - -
27/06:30pm 13.2 N 7 10 1016.6 - 0.0 - - - - - - -
27/06:00pm 13.6 N 6 8 1016.5 - 0.0 - - - - - - -
27/05:30pm 14.5 N 7 9 1016.4 - 0.0 - - - - - - -
27/05:00pm 15.5 N 9 12 1016.5 - 0.0 - - - - - - -
27/04:30pm 16.5 N 9 12 1016.3 - 0.0 - - - - - - -
27/04:00pm 16.6 N 11 15 1016.6 - 0.0 - - - - - - -
27/03:30pm 18.3 N 13 17 1016.5 - 0.0 - - - - - - -
27/03:00pm 18.1 N 14 19 1016.6 - 0.0 - - - - - - -
27/02:30pm 18.4 NNW 15 22 1016.8 - 0.0 - - - - - - -
27/02:00pm 18.1 NNW 15 22 1017.1 - 0.0 - - - - - - -
27/01:30pm 17.3 NNW 17 23 1017.4 - 0.0 - - - - - - -
27/01:00pm 17.6 N 15 21 1018.0 - 0.0 - - - - - - -
27/12:30pm 15.4 NNW 15 22 1018.4 - 0.0 - - - - - - -
27/12:00pm 15.9 N 16 22 1018.8 - 0.0 - - - - - - -
27/11:30am 15.8 NNW 16 23 1019.1 - 0.0 - - - - - - -
27/11:17am 14.9 NNW 16 26 1019.3 - 0.0 - - - - - - -
27/11:00am 15.0 N 15 21 1019.6 - 0.0 - - - - - - -
27/10:30am 15.1 N 16 23 1019.8 - 0.0 - - - - - - -
27/10:00am 15.4 N 16 22 1019.9 - 0.0 - - - - - - -
27/09:30am 14.5 N 15 20 1020.3 - 0.0 - - - - - - -
27/09:00am 13.4 N 11 16 1020.3 - 0.0 - - - - - - -
27/08:30am 11.6 N 10 13 1020.3 - 0.0 - - - - - - -
27/08:00am 8.5 N 8 10 1020.3 - 0.0 - - - - - - -
27/07:30am 7.7 N 8 9 1020.1 - 0.0 - - - - - - -
27/07:00am 7.1 N 8 9 1020.2 - 0.0 - - - - - - -
27/06:30am 7.0 N 7 9 1020.4 - 0.0 - - - - - - -
27/06:00am 6.4 N 6 7 1020.1 - 0.0 - - - - - - -
27/05:30am 6.1 N 7 7 1019.9 - 0.0 - - - - - - -
27/05:00am 6.1 N 7 9 1020.1 - 0.0 - - - - - - -
27/04:30am 6.1 N 8 9 1019.9 - 0.0 - - - - - - -
27/04:00am 6.2 N 7 9 1020.2 - 0.0 - - - - - - -
27/03:30am 6.2 N 8 11 1020.2 - 0.0 - - - - - - -
27/03:00am 5.8 N 8 9 1020.6 - 0.0 - - - - - - -
27/02:30am 5.7 N 7 8 1021.2 - 0.0 - - - - - - -
27/02:00am 5.6 N 6 7 1021.6 - 0.0 - - - - - - -
27/01:30am 5.8 N 6 7 1021.8 - 0.0 - - - - - - -
27/01:00am 5.7 NNW 6 7 1022.1 - 0.0 - - - - - - -
27/12:30am 5.8 N 5 6 1022.1 - 0.0 - - - - - - -
27/12:00am 6.0 N 5 6 1022.3 - 0.0 - - - - - - -
 
Date/Time
CST
Temp
°C
Wind Pressure Rain since
9am
mm
Weather Cloud Vis
km
Sea
Height
m
Swell
Dir  Spd
kts
Gust
kts
hPa Trend Height
m
Period
s
Dir
26/11:30pm 6.4 N 5 6 1022.5 - 0.0 - - - - - - -
26/11:00pm 6.7 N 5 6 1022.8 - 0.0 - - - - - - -
26/10:30pm 6.9 N 5 6 1022.8 - 0.0 - - - - - - -
26/10:00pm 8.2 N 4 6 1023.2 - 0.0 - - - - - - -
26/09:30pm 8.3 N 4 5 1023.3 - 0.0 - - - - - - -
26/09:00pm 8.5 NNW 4 5 1023.5 - 0.0 - - - - - - -
26/08:30pm 8.4 NNW 3 3 1023.5 - 0.0 - - - - - - -
26/08:00pm 9.2 NNW 2 2 1023.6 - 0.0 - - - - - - -
26/07:30pm 9.8 NW 2 2 1023.5 - 0.0 - - - - - - -
26/07:00pm 10.0 WNW 2 3 1023.4 - 0.0 - - - - - - -
26/06:30pm 10.4 WNW 3 4 1023.2 - 0.0 - - - - - - -
26/06:00pm 11.5 WNW 2 3 1023.2 - 0.0 - - - - - - -
26/05:30pm 12.0 W 4 5 1023.2 - 0.0 - - - - - - -
26/05:00pm 13.0 W 5 9 1022.9 - 0.0 - - - - - - -
26/04:30pm 13.7 WNW 5 8 1022.7 - 0.0 - - - - - - -
26/04:00pm 13.2 WNW 7 10 1022.7 - 0.0 - - - - - - -
26/03:30pm 14.3 W 10 17 1022.5 - 0.0 - - - - - - -
26/03:00pm 15.0 WSW 9 14 1022.7 - 0.0 - - - - - - -
26/02:30pm 14.9 W 8 14 1022.9 - 0.0 - - - - - - -
26/02:00pm 15.1 W 8 13 1023.2 - 0.0 - - - - - - -
26/01:30pm 13.8 WSW 8 12 1023.5 - 0.0 - - - - - - -
26/01:00pm 13.6 WSW 8 13 1023.8 - 0.0 - - - - - - -
26/12:30pm 14.4 SW 8 12 1024.2 - 0.0 - - - - - - -
26/12:00pm 13.1 SW 6 9 1024.6 - 0.0 - - - - - - -
26/11:30am 12.9 SW 5 10 1024.9 - 0.0 - - - - - - -
26/11:00am 12.7 SW 4 7 1025.2 - 0.0 - - - - - - -
26/10:30am 12.5 S 4 5 1025.4 - 0.0 - - - - - - -
26/10:00am 11.9 SW 2 4 1025.4 - 0.0 - - - - - - -
26/09:30am 12.0 SSW 4 6 1025.5 - 0.0 - - - - - - -
26/09:00am 11.8 S 5 6 1025.4 - 0.0 - - - - - - -
26/08:30am 11.7 CALM 0 0 1025.3 - 0.0 - - - - - - -
26/08:00am 11.4 CALM 0 0 1025.1 - 0.0 - - - - - - -
26/07:30am 11.1 S 3 4 1025.0 - 0.0 - - - - - - -
26/07:00am 11.0 SSE 4 6 1024.7 - 0.0 - - - - - - -
26/06:30am 10.8 S 4 5 1024.3 - 0.0 - - - - - - -
26/06:00am 11.1 S 5 7 1024.1 - 0.0 - - - - - - -
26/05:30am 11.2 S 6 8 1023.8 - 0.0 - - - - - - -
26/05:00am 10.8 SW 3 5 1023.5 - 0.0 - - - - - - -
26/04:30am 11.2 SW 3 9 1023.3 - 0.0 - - - - - - -
26/04:00am 11.3 SSW 7 11 1023.3 - 0.0 - - - - - - -
26/03:30am 11.4 SW 7 11 1023.4 - 0.0 - - - - - - -
26/03:00am 11.5 SSW 9 13 1023.3 - 0.0 - - - - - - -
26/02:30am 11.7 SSW 8 13 1023.4 - 0.0 - - - - - - -
26/02:00am 11.5 SSW 9 14 1023.5 - 0.0 - - - - - - -
26/01:30am 11.4 S 11 16 1023.7 - 0.0 - - - - - - -
26/01:00am 11.4 S 11 13 1023.6 - 0.0 - - - - - - -
26/12:30am 11.5 S 10 13 1023.7 - 0.0 - - - - - - -
26/12:00am 11.5 S 9 12 1023.6 - 0.0 - - - - - - -
 
Date/Time
CST
Temp
°C
Wind Pressure Rain since
9am
mm
Weather Cloud Vis
km
Sea
Height
m
Swell
Dir  Spd
kts
Gust
kts
hPa Trend Height
m
Period
s
Dir
25/11:30pm 11.5 S 8 12 1023.6 - 0.0 - - - - - - -
25/11:00pm 11.2 S 9 11 1023.4 - 0.0 - - - - - - -
25/10:30pm 11.2 S 9 12 1023.4 - 0.0 - - - - - - -
25/10:00pm 11.5 S 13 16 1023.3 - 0.0 - - - - - - -
25/09:30pm 11.8 S 12 15 1023.3 - 0.0 - - - - - - -
25/09:00pm 11.7 S 12 15 1023.3 - 0.0 - - - - - - -
25/08:30pm 11.8 S 11 15 1023.4 - 0.0 - - - - - - -

Other Formats:

Comma delimited format used in spreadsheet applications
http://www.bom.gov.au/fwo/IDS60701/IDS60701.95806.axf

JavaScript Object Notation format (JSON) in row-major order
http://www.bom.gov.au/fwo/IDS60701/IDS60701.95806.json